Disclaimer

Please do not use the information listed here in-flight or in-navigation, as they are not provided to us by the airports but are provided by volunteers, so they might be outdated.

Search


Regions


Airport information page

Radio informations:
Tower (TWR) - 122.1 MHz
OPS - 369.125 MHz
ZONE - 120.775 MHz
Ground (GND) - 389.45 MHz
Director (DIR) - 123.3 MHz
Automatic Terminal Information Service (ATIS) - 284.275 MHz
Approach (APP) - 126.5 MHz

Airport informations:
Latitude: 52° 47' 53.41" N
Longitude: 002° 40' 04.95" W
Elevation: 249 feet - 76 meters
Operating hours: Remarks
Operating agency: Military
Timezone: UTC 0(+1DT) - Last Sunday in March to last Sunday in October
Fuel: 100/130 MIL Spec, low lead, aviation gasoline (BLUE)

Runway information:
05/23 - 4523 x 151 feet< - >1379 x 46 meters
18/36 - 6018 x 151 feet< - >1834 x 46 meters

Recent METARs:
EGOS 210250Z AUTO 06005KT 9999 -RA OVC008/// 03/02 Q1005
EGOS 210250Z AUTO 06005KT 9999 -RA OVC008/// 03/02 Q1005
EGOS 210350Z AUTO 09004KT 9000 -RADZ OVC006/// 03/02 Q1005

Airport on the map: